| time (UTC) | temp F | wind direction | speed MPH | gust MPH | rain 1hr in | rain 24hr in | rain mn in | humidity % | barometer mb |
| 20260508044037 | 50 | 0 | 0.0 | 0.0 | 0.00 | 0.02 | 0.02 | 71 | 1010.8 |
| 20260508043137 | 50 | 0 | 0.0 | 0.0 | 0.00 | 0.02 | 0.02 | 70 | 1010.7 |
| 20260508042237 | 51 | 0 | 0.0 | 0.0 | 0.00 | 0.02 | 0.02 | 69 | 1010.7 |
| 20260508041337 | 52 | 199 | 0.0 | 1.0 | 0.00 | 0.02 | 0.02 | 68 | 1010.6 |
| 20260508035537 | 52 | 197 | 0.0 | 2.0 | 0.00 | 0.02 | 0.02 | 68 | 1010.5 |
| 20260508034637 | 52 | 189 | 0.0 | 1.0 | 0.00 | 0.02 | 0.02 | 67 | 1010.3 |
| 20260508033737 | 52 | 189 | 0.0 | 1.0 | 0.00 | 0.02 | 0.02 | 67 | 1010.3 |
| 20260508032837 | 52 | 189 | 0.0 | 1.0 | 0.00 | 0.02 | 0.02 | 68 | 1010.3 |
| 20260508031937 | 51 | 228 | 1.0 | 3.0 | 0.00 | 0.02 | 0.02 | 70 | 1010.3 |
| 20260508031037 | 49 | 345 | 0.0 | 2.0 | 0.00 | 0.02 | 0.02 | 72 | 1010.2 |
| 20260508030137 | 48 | 339 | 0.0 | 1.0 | 0.00 | 0.02 | 0.02 | 73 | 1010.3 |
| 20260508024337 | 48 | 339 | 0.0 | 1.0 | 0.00 | 0.02 | 0.02 | 73 | 1010.2 |
| 20260508023437 | 48 | 0 | 0.0 | 0.0 | 0.00 | 0.02 | 0.02 | 73 | 1010.0 |
| 20260508022537 | 49 | 0 | 0.0 | 0.0 | 0.00 | 0.02 | 0.02 | 72 | 1009.9 |
| 20260508021637 | 49 | 0 | 0.0 | 0.0 | 0.00 | 0.02 | 0.02 | 72 | 1009.8 |
| 20260508020737 | 50 | 0 | 0.0 | 0.0 | 0.00 | 0.02 | 0.02 | 71 | 1009.8 |
| 20260508015837 | 50 | 0 | 0.0 | 0.0 | 0.00 | 0.02 | 0.02 | 71 | 1009.8 |
| 20260508014937 | 51 | 0 | 0.0 | 0.0 | 0.00 | 0.02 | 0.02 | 70 | 1009.6 |
| 20260508014037 | 51 | 0 | 0.0 | 0.0 | 0.00 | 0.02 | 0.02 | 69 | 1009.5 |
| 20260508013137 | 52 | 339 | 0.0 | 1.0 | 0.00 | 0.02 | 0.02 | 69 | 1009.4 |
| 20260508012237 | 52 | 0 | 0.0 | 0.0 | 0.00 | 0.02 | 0.02 | 67 | 1009.3 |
| 20260508005537 | 54 | 0 | 0.0 | 0.0 | 0.00 | 0.02 | 0.02 | 64 | 1009.1 |
| 20260508003737 | 55 | 339 | 0.0 | 1.0 | 0.00 | 0.02 | 0.02 | 62 | 1009.0 |
| 20260508002837 | 56 | 339 | 0.0 | 1.0 | 0.00 | 0.02 | 0.02 | 61 | 1009.1 |
| 20260508001936 | 56 | 7 | 0.0 | 2.0 | 0.00 | 0.02 | 0.02 | 59 | 1009.0 |
| 20260508001036 | 56 | 201 | 0.0 | 2.0 | 0.00 | 0.02 | 0.02 | 59 | 1009.1 |
| 20260507234337 | 56 | 5 | 0.0 | 2.0 | 0.00 | 0.02 | 0.02 | 62 | 1009.1 |
| 20260507233436 | 56 | 334 | 0.0 | 2.0 | 0.00 | 0.02 | 0.02 | 63 | 1009.2 |
| 20260507231637 | 54 | 339 | 1.0 | 3.0 | 0.00 | 0.02 | 0.02 | 68 | 1009.1 |
| 20260507230737 | 54 | 339 | 0.0 | 3.0 | 0.00 | 0.02 | 0.02 | 70 | 1009.2 |
| 20260507225839 | 54 | 319 | 0.0 | 1.0 | 0.00 | 0.02 | 0.02 | 71 | 1009.6 |
| 20260507224936 | 54 | 0 | 0.0 | 0.0 | 0.00 | 0.02 | 0.02 | 70 | 1009.7 |
| 20260507224036 | 54 | 322 | 0.0 | 2.0 | 0.00 | 0.02 | 0.02 | 71 | 1009.8 |
| 20260507223136 | 54 | 336 | 0.0 | 1.0 | 0.00 | 0.02 | 0.02 | 71 | 1009.7 |
| 20260507222236 | 54 | 332 | 0.0 | 2.0 | 0.00 | 0.02 | 0.02 | 70 | 1009.8 |
| 20260507220436 | 54 | 291 | 1.0 | 4.0 | 0.00 | 0.02 | 0.02 | 69 | 1010.1 |
| 20260507215536 | 56 | 320 | 2.0 | 10.0 | 0.00 | 0.02 | 0.02 | 59 | 1010.2 |
| 20260507214637 | 59 | 290 | 2.0 | 6.0 | 0.00 | 0.02 | 0.02 | 49 | 1009.8 |
| 20260507212836 | 60 | 185 | 2.0 | 6.0 | 0.00 | 0.02 | 0.02 | 48 | 1009.1 |
| 20260507211936 | 62 | 160 | 2.0 | 5.0 | 0.00 | 0.02 | 0.02 | 46 | 1009.2 |
| 20260507211036 | 62 | 163 | 2.0 | 5.0 | 0.00 | 0.02 | 0.02 | 49 | 1009.3 |
| 20260507210136 | 61 | 176 | 2.0 | 7.0 | 0.00 | 0.02 | 0.02 | 46 | 1009.4 |
| 20260507205236 | 62 | 182 | 2.0 | 5.0 | 0.00 | 0.02 | 0.02 | 46 | 1009.5 |
| 20260507204336 | 61 | 191 | 2.0 | 9.0 | 0.00 | 0.02 | 0.02 | 49 | 1009.6 |
| 20260507203436 | 60 | 184 | 3.0 | 8.0 | 0.00 | 0.02 | 0.02 | 48 | 1009.6 |
| 20260507202536 | 61 | 137 | 2.0 | 7.0 | 0.00 | 0.02 | 0.02 | 53 | 1009.9 |
| 20260507201636 | 60 | 159 | 3.0 | 9.0 | 0.00 | 0.02 | 0.02 | 51 | 1010.1 |
| 20260507200736 | 60 | 189 | 2.0 | 5.0 | 0.00 | 0.02 | 0.02 | 51 | 1010.2 |
| 20260507195836 | 60 | 170 | 3.0 | 6.0 | 0.00 | 0.02 | 0.02 | 52 | 1010.3 |
| 20260507194036 | 58 | 168 | 3.0 | 7.0 | 0.01 | 0.02 | 0.02 | 56 | 1011.0 |
| 20260507193136 | 58 | 179 | 3.0 | 6.0 | 0.01 | 0.02 | 0.02 | 54 | 1011.1 |
| 20260507192236 | 58 | 178 | 3.0 | 9.0 | 0.01 | 0.02 | 0.02 | 54 | 1011.4 |
| 20260507191336 | 58 | 195 | 2.0 | 7.0 | 0.01 | 0.02 | 0.02 | 54 | 1011.4 |
| 20260507185536 | 59 | 270 | 2.0 | 8.0 | 0.01 | 0.02 | 0.02 | 50 | 1011.7 |
| 20260507184636 | 59 | 187 | 2.0 | 8.0 | 0.00 | 0.01 | 0.01 | 48 | 1011.5 |
| 20260507183736 | 59 | 201 | 2.0 | 6.0 | 0.00 | 0.01 | 0.01 | 46 | 1011.6 |
| 20260507182836 | 58 | 200 | 2.0 | 8.0 | 0.00 | 0.01 | 0.01 | 43 | 1011.7 |
| 20260507181036 | 60 | 151 | 2.0 | 7.0 | 0.00 | 0.01 | 0.01 | 42 | 1011.7 |
| 20260507180136 | 59 | 184 | 2.0 | 6.0 | 0.00 | 0.01 | 0.01 | 41 | 1011.8 |
| 20260507175236 | 59 | 181 | 2.0 | 7.0 | 0.00 | 0.01 | 0.01 | 40 | 1011.9 |
| 20260507174336 | 59 | 155 | 2.0 | 7.0 | 0.00 | 0.01 | 0.01 | 39 | 1012.0 |
| 20260507173436 | 59 | 206 | 2.0 | 5.0 | 0.00 | 0.01 | 0.01 | 39 | 1012.2 |
| 20260507172536 | 59 | 206 | 2.0 | 4.0 | 0.00 | 0.01 | 0.01 | 40 | 1012.3 |
| 20260507171636 | 58 | 151 | 2.0 | 6.0 | 0.00 | 0.01 | 0.01 | 42 | 1012.5 |
| 20260507170736 | 58 | 164 | 1.0 | 4.0 | 0.00 | 0.01 | 0.01 | 44 | 1012.8 |
| 20260507164936 | 57 | 161 | 1.0 | 5.0 | 0.00 | 0.01 | 0.01 | 43 | 1013.0 |
| 20260507164036 | 57 | 141 | 1.0 | 5.0 | 0.00 | 0.01 | 0.01 | 46 | 1013.1 |
| 20260507163136 | 56 | 161 | 1.0 | 4.0 | 0.00 | 0.01 | 0.01 | 45 | 1013.2 |
| 20260507162236 | 56 | 156 | 1.0 | 4.0 | 0.00 | 0.01 | 0.01 | 44 | 1013.5 |
| 20260507161336 | 56 | 118 | 2.0 | 4.0 | 0.00 | 0.01 | 0.01 | 43 | 1013.7 |
| 20260507160436 | 56 | 203 | 1.0 | 3.0 | 0.00 | 0.01 | 0.01 | 43 | 1013.9 |
| 20260507155536 | 55 | 209 | 1.0 | 4.0 | 0.00 | 0.01 | 0.01 | 43 | 1014.2 |
| 20260507151936 | 53 | 225 | 1.0 | 5.0 | 0.00 | 0.01 | 0.01 | 44 | 1014.3 |
| 20260507151036 | 53 | 257 | 1.0 | 3.0 | 0.00 | 0.01 | 0.01 | 44 | 1014.4 |
| 20260507150136 | 53 | 197 | 1.0 | 4.0 | 0.00 | 0.01 | 0.01 | 44 | 1014.5 |
| 20260507145236 | 54 | 137 | 1.0 | 4.0 | 0.00 | 0.01 | 0.01 | 44 | 1014.6 |
| 20260507144336 | 53 | 140 | 1.0 | 5.0 | 0.00 | 0.01 | 0.01 | 46 | 1014.8 |
| 20260507143436 | 52 | 8 | 1.0 | 5.0 | 0.00 | 0.01 | 0.01 | 48 | 1014.9 |
| 20260507142536 | 51 | 254 | 1.0 | 3.0 | 0.00 | 0.01 | 0.01 | 48 | 1015.0 |
| 20260507141636 | 50 | 313 | 1.0 | 2.0 | 0.00 | 0.01 | 0.01 | 51 | 1015.0 |
| 20260507140736 | 49 | 157 | 1.0 | 2.0 | 0.00 | 0.01 | 0.01 | 53 | 1015.0 |
| 20260507134936 | 47 | 115 | 1.0 | 4.0 | 0.00 | 0.01 | 0.01 | 56 | 1015.1 |
| 20260507134036 | 46 | 52 | 0.0 | 2.0 | 0.01 | 0.01 | 0.01 | 58 | 1015.2 |
| 20260507133136 | 45 | 51 | 0.0 | 2.0 | 0.01 | 0.01 | 0.01 | 61 | 1015.2 |
| 20260507130438 | 42 | 284 | 1.0 | 2.0 | 0.01 | 0.01 | 0.01 | 70 | 1015.4 |
| 20260507125536 | 40 | 340 | 0.0 | 2.0 | 0.01 | 0.01 | 0.01 | 73 | 1015.5 |
| 20260507124636 | 38 | 0 | 0.0 | 0.0 | 0.01 | 0.01 | 0.01 | 72 | 1015.3 |
| 20260507123736 | 37 | 343 | 0.0 | 1.0 | 0.00 | 0.00 | 0.00 | 72 | 1015.2 |
| 20260507121936 | 35 | 343 | 0.0 | 1.0 | 0.00 | 0.00 | 0.00 | 71 | 1015.1 |
| 20260507121036 | 35 | 0 | 0.0 | 0.0 | 0.00 | 0.00 | 0.00 | 71 | 1015.0 |
| 20260507120136 | 34 | 0 | 0.0 | 0.0 | 0.00 | 0.00 | 0.00 | 72 | 1015.0 |
| 20260507115237 | 34 | 0 | 0.0 | 0.0 | 0.00 | 0.00 | 0.00 | 72 | 1014.9 |
| 20260507114336 | 33 | 0 | 0.0 | 0.0 | 0.00 | 0.00 | 0.00 | 73 | 1014.9 |
| 20260507113436 | 33 | 0 | 0.0 | 0.0 | 0.00 | 0.00 | 0.00 | 73 | 1014.9 |
| 20260507112536 | 33 | 0 | 0.0 | 0.0 | 0.00 | 0.00 | 0.00 | 73 | 1015.0 |
| 20260507111639 | 33 | 0 | 0.0 | 0.0 | 0.00 | 0.00 | 0.00 | 74 | 1014.9 |
| 20260507110738 | 33 | 0 | 0.0 | 0.0 | 0.00 | 0.00 | 0.00 | 74 | 1014.8 |
| 20260507104943 | 33 | 0 | 0.0 | 0.0 | 0.00 | 0.00 | 0.00 | 74 | 1014.8 |
| 20260507104043 | 33 | 0 | 0.0 | 0.0 | 0.00 | 0.00 | 0.00 | 75 | 1014.8 |
| 20260507103143 | 33 | 0 | 0.0 | 0.0 | 0.00 | 0.00 | 0.00 | 75 | 1014.9 |
| 20260507102243 | 33 | 0 | 0.0 | 0.0 | 0.00 | 0.00 | 0.00 | 75 | 1014.9 |
| 20260507101343 | 33 | 0 | 0.0 | 0.0 | 0.00 | 0.00 | 0.00 | 75 | 1014.8 |
| 20260507100444 | 33 | 0 | 0.0 | 0.0 | 0.00 | 0.00 | 0.00 | 75 | 1014.8 |
| 20260507095543 | 33 | 0 | 0.0 | 0.0 | 0.00 | 0.00 | 0.00 | 75 | 1014.8 |
| 20260507093743 | 33 | 0 | 0.0 | 0.0 | 0.00 | 0.00 | 0.00 | 76 | 1014.8 |
| 20260507092844 | 34 | 0 | 0.0 | 0.0 | 0.00 | 0.00 | 0.00 | 76 | 1014.9 |
| 20260507091943 | 34 | 0 | 0.0 | 0.0 | 0.00 | 0.00 | 0.00 | 76 | 1014.9 |
| 20260507091043 | 34 | 0 | 0.0 | 0.0 | 0.00 | 0.00 | 0.00 | 76 | 1015.0 |
| 20260507090144 | 34 | 0 | 0.0 | 0.0 | 0.00 | 0.00 | 0.00 | 76 | 1015.0 |
| 20260507085244 | 34 | 0 | 0.0 | 0.0 | 0.00 | 0.00 | 0.00 | 76 | 1015.0 |
| 20260507083443 | 35 | 0 | 0.0 | 0.0 | 0.00 | 0.00 | 0.00 | 76 | 1015.0 |
| 20260507082544 | 35 | 0 | 0.0 | 0.0 | 0.00 | 0.00 | 0.00 | 76 | 1014.9 |
| 20260507081644 | 35 | 0 | 0.0 | 0.0 | 0.00 | 0.00 | 0.00 | 76 | 1014.9 |
| 20260507080743 | 35 | 0 | 0.0 | 0.0 | 0.00 | 0.00 | 0.00 | 76 | 1014.8 |
| 20260507075844 | 35 | 0 | 0.0 | 0.0 | 0.00 | 0.00 | 0.00 | 76 | 1014.9 |
| 20260507074943 | 35 | 0 | 0.0 | 0.0 | 0.00 | 0.00 | 0.00 | 75 | 1014.9 |
| 20260507074043 | 35 | 0 | 0.0 | 0.0 | 0.00 | 0.00 | 0.00 | 75 | 1014.9 |
| 20260507073144 | 35 | 0 | 0.0 | 0.0 | 0.00 | 0.00 | 0.00 | 75 | 1014.9 |
| 20260507072243 | 36 | 0 | 0.0 | 0.0 | 0.00 | 0.00 | 0.00 | 75 | 1014.9 |
| 20260507071344 | 36 | 0 | 0.0 | 0.0 | 0.00 | 0.00 | 0.00 | 75 | 1014.9 |
| 20260507070444 | 36 | 0 | 0.0 | 0.0 | 0.00 | 0.00 | 0.00 | 75 | 1015.1 |
| 20260507064644 | 36 | 0 | 0.0 | 0.0 | 0.00 | 0.00 | 0.00 | 75 | 1015.2 |
| 20260507063743 | 36 | 0 | 0.0 | 0.0 | 0.00 | 0.00 | 0.00 | 74 | 1015.2 |
| 20260507062843 | 36 | 0 | 0.0 | 0.0 | 0.00 | 0.00 | 0.00 | 74 | 1015.2 |
| 20260507061944 | 36 | 0 | 0.0 | 0.0 | 0.00 | 0.00 | 0.00 | 74 | 1015.3 |
| 20260507061043 | 37 | 0 | 0.0 | 0.0 | 0.00 | 0.00 | 0.00 | 73 | 1015.3 |
| 20260507055243 | 37 | 0 | 0.0 | 0.0 | 0.00 | 0.00 | 0.00 | 72 | 1015.3 |
| 20260507054343 | 37 | 0 | 0.0 | 0.0 | 0.00 | 0.00 | 0.00 | 72 | 1015.3 |
| 20260507053444 | 38 | 0 | 0.0 | 0.0 | 0.00 | 0.00 | 0.00 | 71 | 1015.2 |
| 20260507052543 | 38 | 0 | 0.0 | 0.0 | 0.00 | 0.00 | 0.00 | 71 | 1015.3 |
| 20260507051643 | 38 | 0 | 0.0 | 0.0 | 0.00 | 0.00 | 0.00 | 70 | 1015.3 |
| 20260507050743 | 39 | 0 | 0.0 | 0.0 | 0.00 | 0.00 | 0.00 | 70 | 1015.3 |
| 20260507045843 | 39 | 0 | 0.0 | 0.0 | 0.00 | 0.00 | 0.00 | 68 | 1015.3 |
| 20260507044943 | 39 | 0 | 0.0 | 0.0 | 0.00 | 0.00 | 0.00 | 68 | 1015.3 |